createdAt,value
2016-01-14T00:00:08.562Z,-15.39
2016-01-14T00:00:19.999Z,-15.29
2016-01-14T00:00:31.484Z,-15.31
2016-01-14T00:00:42.937Z,-15.34
2016-01-14T00:00:54.421Z,-15.28
2016-01-14T00:01:05.877Z,-15.28
2016-01-14T00:01:17.362Z,-15.32
2016-01-14T00:01:28.815Z,-15.29
2016-01-14T00:01:40.268Z,-15.34
2016-01-14T00:01:51.721Z,-15.32
2016-01-14T00:02:03.177Z,-15.29
2016-01-14T00:02:14.646Z,-15.28
2016-01-14T00:02:26.115Z,-15.24
2016-01-14T00:02:37.568Z,-15.29
2016-01-14T00:02:49.037Z,-15.27
2016-01-14T00:03:00.507Z,-15.28
2016-01-14T00:03:11.273Z,-15.22
2016-01-14T00:03:22.757Z,-15.29
2016-01-14T00:03:34.226Z,-15.25
2016-01-14T00:03:45.742Z,-15.29
2016-01-14T00:03:57.179Z,-15.29
2016-01-14T00:04:08.650Z,-15.27
2016-01-14T00:04:20.103Z,-15.31
2016-01-14T00:04:31.556Z,-15.22
2016-01-14T00:04:43.025Z,-15.29
2016-01-14T00:04:54.478Z,-15.29
2016-01-14T00:05:05.966Z,-15.31
2016-01-14T00:05:17.434Z,-15.24
2016-01-14T00:05:28.887Z,-15.32
2016-01-14T00:05:40.387Z,-15.24
2016-01-14T00:05:51.856Z,-15.19
2016-01-14T00:06:03.375Z,-15.28
2016-01-14T00:06:14.859Z,-15.19
2016-01-14T00:06:26.187Z,-15.18
2016-01-14T00:06:37.640Z,-15.24
2016-01-14T00:06:49.094Z,-15.29
2016-01-14T00:07:00.547Z,-15.28
2016-01-14T00:07:12.018Z,-15.24
2016-01-14T00:07:23.472Z,-15.21
2016-01-14T00:07:34.956Z,-15.24
2016-01-14T00:07:46.440Z,-15.24
2016-01-14T00:07:57.909Z,-15.28
2016-01-14T00:08:09.395Z,-15.14
2016-01-14T00:08:20.864Z,-15.18
2016-01-14T00:08:32.349Z,-15.27
2016-01-14T00:08:43.817Z,-15.25
2016-01-14T00:08:55.271Z,-15.24
2016-01-14T00:09:06.743Z,-15.21
2016-01-14T00:09:18.228Z,-15.29
2016-01-14T00:09:29.681Z,-15.28
2016-01-14T00:09:41.134Z,-15.24
2016-01-14T00:09:52.587Z,-15.27
2016-01-14T00:10:04.074Z,-15.19
2016-01-14T00:10:15.543Z,-15.29
2016-01-14T00:10:27.027Z,-15.29
2016-01-14T00:10:38.512Z,-15.32
2016-01-14T00:10:49.981Z,-15.19
2016-01-14T00:11:01.496Z,-15.22
2016-01-14T00:11:12.968Z,-15.29
2016-01-14T00:11:24.421Z,-15.25
2016-01-14T00:11:35.905Z,-15.28
2016-01-14T00:11:47.343Z,-15.21
2016-01-14T00:11:58.812Z,-15.22
2016-01-14T00:12:10.267Z,-15.25
2016-01-14T00:12:21.704Z,-15.28
2016-01-14T00:12:33.189Z,-15.25
2016-01-14T00:12:44.642Z,-15.22
2016-01-14T00:12:56.126Z,-15.25
2016-01-14T00:13:07.629Z,-15.29
2016-01-14T00:13:19.098Z,-15.27
2016-01-14T00:13:30.567Z,-15.24
2016-01-14T00:13:42.004Z,-15.25
2016-01-14T00:13:53.457Z,-15.31
2016-01-14T00:14:04.929Z,-15.25
2016-01-14T00:14:16.382Z,-15.24
2016-01-14T00:14:27.835Z,-15.27
2016-01-14T00:14:39.335Z,-15.31
2016-01-14T00:14:50.788Z,-15.28
2016-01-14T00:15:02.288Z,-15.31
2016-01-14T00:15:13.759Z,-15.32
2016-01-14T00:15:25.228Z,-15.31
2016-01-14T00:15:36.728Z,-15.28
2016-01-14T00:15:48.197Z,-15.29
2016-01-14T00:15:59.665Z,-15.34
2016-01-14T00:16:11.106Z,-15.29
2016-01-14T00:16:22.575Z,-15.27
2016-01-14T00:16:34.028Z,-15.25
2016-01-14T00:16:45.497Z,-15.28
2016-01-14T00:16:56.965Z,-15.27
2016-01-14T00:17:07.717Z,-15.28
2016-01-14T00:17:19.186Z,-15.37
2016-01-14T00:17:30.655Z,-15.28
2016-01-14T00:17:42.139Z,-15.28
2016-01-14T00:17:53.624Z,-15.39
2016-01-14T00:18:05.108Z,-15.29
2016-01-14T00:18:16.595Z,-15.25
2016-01-14T00:18:28.064Z,-15.27
2016-01-14T00:18:39.517Z,-15.29
2016-01-14T00:18:50.986Z,-15.29
2016-01-14T00:19:02.439Z,-15.34
2016-01-14T00:19:13.176Z,-15.29
2016-01-14T00:19:24.645Z,-15.29
2016-01-14T00:19:36.098Z,-15.39
2016-01-14T00:19:47.583Z,-15.34
2016-01-14T00:19:59.083Z,-15.4
2016-01-14T00:20:10.570Z,-15.42
2016-01-14T00:20:22.070Z,-15.32
2016-01-14T00:20:33.539Z,-15.32
2016-01-14T00:20:44.992Z,-15.36
2016-01-14T00:20:56.461Z,-15.42
2016-01-14T00:21:07.898Z,-15.31
2016-01-14T00:21:19.370Z,-15.28
2016-01-14T00:21:30.870Z,-15.32
2016-01-14T00:21:42.307Z,-15.31
2016-01-14T00:21:53.776Z,-15.32
2016-01-14T00:22:05.245Z,-15.37
2016-01-14T00:22:16.732Z,-15.32
2016-01-14T00:22:28.201Z,-15.32
2016-01-14T00:22:39.685Z,-15.24
2016-01-14T00:22:51.154Z,-15.29
2016-01-14T00:23:02.623Z,-15.31
2016-01-14T00:23:14.094Z,-15.4
2016-01-14T00:23:25.547Z,-15.32
2016-01-14T00:23:37.031Z,-15.4
2016-01-14T00:23:48.500Z,-15.27
2016-01-14T00:23:59.953Z,-15.31
2016-01-14T00:24:11.440Z,-15.29
2016-01-14T00:24:22.894Z,-15.39
2016-01-14T00:24:34.347Z,-15.27
2016-01-14T00:24:45.847Z,-15.27
2016-01-14T00:24:57.315Z,-15.28
2016-01-14T00:25:08.800Z,-15.31
2016-01-14T00:25:20.287Z,-15.28
2016-01-14T00:25:31.787Z,-15.28
2016-01-14T00:25:43.225Z,-15.29
2016-01-14T00:25:54.709Z,-15.29
2016-01-14T00:26:06.178Z,-15.31
2016-01-14T00:26:17.633Z,-15.37
2016-01-14T00:26:29.102Z,-15.34
2016-01-14T00:26:40.555Z,-15.29
2016-01-14T00:26:52.008Z,-15.28
2016-01-14T00:27:03.492Z,-15.32
2016-01-14T00:27:14.964Z,-15.27
2016-01-14T00:27:26.448Z,-15.34
2016-01-14T00:27:37.948Z,-15.29
2016-01-14T00:27:49.261Z,-15.29
2016-01-14T00:28:00.761Z,-15.28
2016-01-14T00:28:12.217Z,-15.28
2016-01-14T00:28:23.686Z,-15.31
2016-01-14T00:28:35.139Z,-15.29
2016-01-14T00:28:46.608Z,-15.29
2016-01-14T00:28:58.045Z,-15.37
2016-01-14T00:29:09.514Z,-15.25
2016-01-14T00:29:21.000Z,-15.28
2016-01-14T00:29:32.453Z,-15.4
2016-01-14T00:29:43.938Z,-15.31
2016-01-14T00:29:55.438Z,-15.39
2016-01-14T00:30:06.907Z,-15.42
2016-01-14T00:30:18.410Z,-15.31
2016-01-14T00:30:29.863Z,-15.25
2016-01-14T00:30:41.316Z,-15.29
2016-01-14T00:30:52.785Z,-15.27
2016-01-14T00:31:04.238Z,-15.32
2016-01-14T00:31:15.709Z,-15.37
2016-01-14T00:31:27.178Z,-15.34
2016-01-14T00:31:38.631Z,-15.31
2016-01-14T00:31:50.100Z,-15.34
2016-01-14T00:32:01.569Z,-15.32
2016-01-14T00:32:13.025Z,-15.29
2016-01-14T00:32:24.509Z,-15.24
2016-01-14T00:32:35.994Z,-15.27
2016-01-14T00:32:47.478Z,-15.27
2016-01-14T00:32:58.978Z,-15.22
2016-01-14T00:33:10.431Z,-15.28
2016-01-14T00:33:21.902Z,-15.19
2016-01-14T00:33:33.355Z,-15.25
2016-01-14T00:33:44.793Z,-15.19
2016-01-14T00:33:56.261Z,-15.18
2016-01-14T00:34:07.699Z,-15.07
2016-01-14T00:34:19.185Z,-15.22
2016-01-14T00:34:30.638Z,-15.22
2016-01-14T00:34:42.123Z,-15.1
2016-01-14T00:34:53.576Z,-15.21
2016-01-14T00:35:05.060Z,-15.18
2016-01-14T00:35:16.549Z,-15.21
2016-01-14T00:35:28.017Z,-15.16
2016-01-14T00:35:39.486Z,-15.16
2016-01-14T00:35:50.939Z,-15.18
2016-01-14T00:36:02.377Z,-15.16
2016-01-14T00:36:13.864Z,-15.13
2016-01-14T00:36:25.317Z,-15.18
2016-01-14T00:36:36.770Z,-15.13
2016-01-14T00:36:48.239Z,-15.16
2016-01-14T00:36:59.708Z,-15.04
2016-01-14T00:37:11.177Z,-15.13
2016-01-14T00:37:22.663Z,-15.18
2016-01-14T00:37:34.132Z,-15.13
2016-01-14T00:37:45.616Z,-15.14
2016-01-14T00:37:57.085Z,-15.16
2016-01-14T00:38:08.554Z,-15.13
2016-01-14T00:38:20.024Z,-15.06
2016-01-14T00:38:31.477Z,-15.06
2016-01-14T00:38:42.946Z,-15.06
2016-01-14T00:38:54.384Z,-15.03
2016-01-14T00:39:05.837Z,-15.07
2016-01-14T00:39:17.324Z,-15.09
2016-01-14T00:39:28.777Z,-15.09
2016-01-14T00:39:40.277Z,-15
2016-01-14T00:39:51.777Z,-15.09
2016-01-14T00:40:03.246Z,-15.13
2016-01-14T00:40:14.733Z,-15.09
2016-01-14T00:40:26.046Z,-15.04
2016-01-14T00:40:37.515Z,-15.09
2016-01-14T00:40:48.952Z,-15.02
2016-01-14T00:41:00.421Z,-15.04
2016-01-14T00:41:11.874Z,-15.04
2016-01-14T00:41:23.315Z,-14.95
2016-01-14T00:41:34.783Z,-15.06
2016-01-14T00:41:46.252Z,-15.03
2016-01-14T00:41:57.721Z,-15.1
2016-01-14T00:42:09.205Z,-15.03
2016-01-14T00:42:20.692Z,-15.06
2016-01-14T00:42:32.192Z,-15.06
2016-01-14T00:42:43.660Z,-15.09
2016-01-14T00:42:55.145Z,-15
2016-01-14T00:43:06.613Z,-14.97
2016-01-14T00:43:18.054Z,-15.02
2016-01-14T00:43:29.523Z,-15.06
2016-01-14T00:43:41.007Z,-15.09
2016-01-14T00:43:52.445Z,-15.03
2016-01-14T00:44:03.226Z,-15
2016-01-14T00:44:14.679Z,-14.99
2016-01-14T00:44:26.135Z,-14.97
2016-01-14T00:44:37.619Z,-15.06
2016-01-14T00:44:49.104Z,-15
2016-01-14T00:45:00.604Z,-14.94
2016-01-14T00:45:12.104Z,-14.99
2016-01-14T00:45:23.576Z,-14.94
2016-01-14T00:45:35.029Z,-14.99
2016-01-14T00:45:46.482Z,-15.02
2016-01-14T00:45:57.935Z,-15
2016-01-14T00:46:09.388Z,-14.92
2016-01-14T00:46:20.844Z,-15
2016-01-14T00:46:32.329Z,-14.99
2016-01-14T00:46:43.782Z,-14.99
2016-01-14T00:46:55.266Z,-14.95
2016-01-14T00:47:06.735Z,-15.02
2016-01-14T00:47:18.237Z,-14.95
2016-01-14T00:47:29.721Z,-14.99
2016-01-14T00:47:41.206Z,-14.95
2016-01-14T00:47:52.690Z,-14.99
2016-01-14T00:48:04.143Z,-14.99
2016-01-14T00:48:15.581Z,-15
2016-01-14T00:48:27.052Z,-15.03
2016-01-14T00:48:38.505Z,-14.94
2016-01-14T00:48:49.974Z,-15.02
2016-01-14T00:49:01.474Z,-14.95
2016-01-14T00:49:12.927Z,-14.95
2016-01-14T00:49:24.415Z,-14.92
2016-01-14T00:49:35.883Z,-14.97
2016-01-14T00:49:47.352Z,-15.02
2016-01-14T00:49:58.837Z,-14.97
2016-01-14T00:50:10.305Z,-14.92
2016-01-14T00:50:21.792Z,-14.94
2016-01-14T00:50:33.276Z,-14.97
2016-01-14T00:50:44.714Z,-14.95
2016-01-14T00:50:56.182Z,-14.82
2016-01-14T00:51:07.635Z,-14.99
2016-01-14T00:51:19.092Z,-14.95
2016-01-14T00:51:30.560Z,-14.89
2016-01-14T00:51:42.029Z,-14.84
2016-01-14T00:51:53.498Z,-14.85
2016-01-14T00:52:04.998Z,-14.86
2016-01-14T00:52:16.467Z,-14.88
2016-01-14T00:52:27.969Z,-14.89
2016-01-14T00:52:39.422Z,-14.92
2016-01-14T00:52:50.890Z,-14.92
2016-01-14T00:53:02.344Z,-14.89
2016-01-14T00:53:13.812Z,-14.92
2016-01-14T00:53:25.269Z,-14.81
2016-01-14T00:53:36.723Z,-14.84
2016-01-14T00:53:48.191Z,-14.92
2016-01-14T00:53:59.676Z,-14.84
2016-01-14T00:54:11.144Z,-14.88
2016-01-14T00:54:22.646Z,-14.84
2016-01-14T00:54:34.115Z,-14.92
2016-01-14T00:54:45.615Z,-14.89
2016-01-14T00:54:57.084Z,-14.85
2016-01-14T00:55:08.537Z,-14.88
2016-01-14T00:55:20.009Z,-14.77
2016-01-14T00:55:31.446Z,-14.91
2016-01-14T00:55:42.915Z,-14.79
2016-01-14T00:55:54.384Z,-14.74
2016-01-14T00:56:05.837Z,-14.74
2016-01-14T00:56:17.306Z,-14.81
2016-01-14T00:56:28.776Z,-14.91
2016-01-14T00:56:40.230Z,-14.92
2016-01-14T00:56:51.714Z,-14.88
2016-01-14T00:57:03.198Z,-14.74
2016-01-14T00:57:14.698Z,-14.85
2016-01-14T00:57:26.217Z,-14.82
2016-01-14T00:57:37.670Z,-14.73
2016-01-14T00:57:49.123Z,-14.89
2016-01-14T00:58:00.576Z,-14.92
2016-01-14T00:58:12.029Z,-14.86
2016-01-14T00:58:23.500Z,-14.91
2016-01-14T00:58:34.953Z,-14.85
2016-01-14T00:58:46.422Z,-14.81
2016-01-14T00:58:57.891Z,-14.86
2016-01-14T00:59:09.375Z,-14.85
2016-01-14T00:59:20.848Z,-14.79
2016-01-14T00:59:32.332Z,-14.86
2016-01-14T00:59:43.801Z,-14.88
2016-01-14T00:59:55.239Z,-14.77
2016-01-14T01:00:06.707Z,-14.86
2016-01-14T01:00:18.160Z,-14.88
2016-01-14T01:00:29.600Z,-14.75
2016-01-14T01:00:41.084Z,-14.81
2016-01-14T01:00:52.553Z,-14.91
2016-01-14T01:01:04.022Z,-14.91
2016-01-14T01:01:14.834Z,-14.75
2016-01-14T01:01:26.322Z,-14.75
2016-01-14T01:01:37.806Z,-14.81
2016-01-14T01:01:49.290Z,-14.85
2016-01-14T01:02:00.744Z,-14.84
2016-01-14T01:02:12.053Z,-14.85
2016-01-14T01:02:22.806Z,-14.85
2016-01-14T01:02:34.275Z,-14.79
2016-01-14T01:02:45.744Z,-14.89
2016-01-14T01:02:57.197Z,-14.75
2016-01-14T01:03:08.665Z,-14.89
2016-01-14T01:03:20.134Z,-14.77
2016-01-14T01:03:31.589Z,-14.79
2016-01-14T01:03:43.089Z,-14.75
2016-01-14T01:03:54.558Z,-14.82
2016-01-14T01:04:06.058Z,-14.77
2016-01-14T01:04:17.542Z,-14.86
2016-01-14T01:04:28.842Z,-14.77
2016-01-14T01:04:40.295Z,-14.84
2016-01-14T01:04:51.608Z,-14.77
2016-01-14T01:05:03.061Z,-14.84
2016-01-14T01:05:14.514Z,-14.77
2016-01-14T01:05:25.986Z,-14.89
2016-01-14T01:05:37.439Z,-14.84
2016-01-14T01:05:48.892Z,-14.77
2016-01-14T01:06:00.392Z,-14.89
2016-01-14T01:06:11.845Z,-14.75
2016-01-14T01:06:23.332Z,-14.85
2016-01-14T01:06:34.816Z,-14.75
2016-01-14T01:06:46.129Z,-14.79
2016-01-14T01:06:57.582Z,-14.74
2016-01-14T01:07:09.035Z,-14.89
2016-01-14T01:07:20.488Z,-14.75
2016-01-14T01:07:31.960Z,-14.84
2016-01-14T01:07:43.413Z,-14.82
2016-01-14T01:07:54.897Z,-14.77
2016-01-14T01:08:06.382Z,-14.77
2016-01-14T01:08:17.835Z,-14.85
2016-01-14T01:08:29.338Z,-14.75
2016-01-14T01:08:40.806Z,-14.77
2016-01-14T01:08:52.275Z,-14.77
2016-01-14T01:09:03.744Z,-14.82
2016-01-14T01:09:15.197Z,-14.77
2016-01-14T01:09:26.512Z,-14.74
2016-01-14T01:09:37.980Z,-14.75
2016-01-14T01:09:49.418Z,-14.74
2016-01-14T01:10:00.887Z,-14.84
2016-01-14T01:10:12.355Z,-14.77
2016-01-14T01:10:23.828Z,-14.74
2016-01-14T01:10:35.328Z,-14.7
2016-01-14T01:10:46.797Z,-14.77
2016-01-14T01:10:57.437Z,-14.71
2016-01-14T01:11:08.906Z,-14.82
2016-01-14T01:11:20.375Z,-14.85
2016-01-14T01:11:31.814Z,-14.86
2016-01-14T01:11:43.283Z,-14.75
2016-01-14T01:11:54.752Z,-14.77
2016-01-14T01:12:06.205Z,-14.85
2016-01-14T01:12:17.674Z,-14.79
2016-01-14T01:12:29.130Z,-14.88
2016-01-14T01:12:40.583Z,-14.86
2016-01-14T01:12:52.067Z,-14.85
2016-01-14T01:13:03.536Z,-14.74
2016-01-14T01:13:15.036Z,-14.88
2016-01-14T01:13:26.554Z,-14.91
2016-01-14T01:13:38.023Z,-14.81
2016-01-14T01:13:49.476Z,-14.92
2016-01-14T01:14:00.929Z,-14.82
2016-01-14T01:14:12.398Z,-14.91
2016-01-14T01:14:23.851Z,-14.91
2016-01-14T01:14:35.323Z,-14.75
2016-01-14T01:14:46.777Z,-14.88
2016-01-14T01:14:58.230Z,-14.91
2016-01-14T01:15:09.714Z,-14.81
2016-01-14T01:15:21.183Z,-14.91
2016-01-14T01:15:32.668Z,-14.89
2016-01-14T01:15:44.168Z,-14.88
2016-01-14T01:15:55.653Z,-14.81
2016-01-14T01:16:07.153Z,-14.89
2016-01-14T01:16:18.590Z,-14.89
2016-01-14T01:16:30.047Z,-14.86
2016-01-14T01:16:41.516Z,-14.89
2016-01-14T01:16:52.250Z,-14.88
2016-01-14T01:17:03.719Z,-14.84
2016-01-14T01:17:15.172Z,-14.81
2016-01-14T01:17:26.641Z,-14.79
2016-01-14T01:17:38.112Z,-14.85
2016-01-14T01:17:49.612Z,-14.85
2016-01-14T01:18:01.096Z,-14.85
2016-01-14T01:18:12.424Z,-14.84
2016-01-14T01:18:23.924Z,-14.88
2016-01-14T01:18:35.412Z,-14.95
2016-01-14T01:18:46.849Z,-14.85
2016-01-14T01:18:58.162Z,-14.86
2016-01-14T01:19:09.615Z,-14.88
2016-01-14T01:19:21.083Z,-14.85
2016-01-14T01:19:32.555Z,-14.86
2016-01-14T01:19:44.008Z,-14.89
2016-01-14T01:19:55.477Z,-14.85
2016-01-14T01:20:06.946Z,-14.89
2016-01-14T01:20:18.430Z,-14.89
2016-01-14T01:20:29.932Z,-14.91
2016-01-14T01:20:41.417Z,-14.94
2016-01-14T01:20:52.885Z,-14.86
2016-01-14T01:21:04.354Z,-14.95
2016-01-14T01:21:15.807Z,-14.82
2016-01-14T01:21:27.276Z,-14.88
2016-01-14T01:22:10.826Z,-14.94
2016-01-14T01:22:22.232Z,-14.92
2016-01-14T01:22:33.704Z,-14.94
2016-01-14T01:22:45.157Z,-14.95
2016-01-14T01:22:56.641Z,-14.88
2016-01-14T01:23:08.126Z,-14.92
2016-01-14T01:23:19.594Z,-14.91
2016-01-14T01:23:31.144Z,-14.97
2016-01-14T01:23:42.613Z,-14.88
2016-01-14T01:23:54.113Z,-14.99
2016-01-14T01:24:05.566Z,-14.89
2016-01-14T01:24:17.035Z,-14.85
2016-01-14T01:24:28.488Z,-14.97
2016-01-14T01:24:39.943Z,-14.85
2016-01-14T01:24:51.396Z,-14.89
2016-01-14T01:25:02.865Z,-14.88
2016-01-14T01:25:14.349Z,-14.95
2016-01-14T01:25:25.834Z,-14.88
2016-01-14T01:25:37.321Z,-14.91
2016-01-14T01:25:48.806Z,-14.99
2016-01-14T01:26:00.274Z,-14.88
2016-01-14T01:26:11.743Z,-14.88
2016-01-14T01:26:23.102Z,-14.84
2016-01-14T01:26:34.558Z,-14.94
2016-01-14T01:26:46.026Z,-14.88
2016-01-14T01:26:57.495Z,-14.89
2016-01-14T01:27:08.948Z,-14.88
2016-01-14T01:27:20.401Z,-14.91
2016-01-14T01:27:31.873Z,-14.97
2016-01-14T01:27:43.326Z,-14.88
2016-01-14T01:27:54.795Z,-14.88
2016-01-14T01:28:06.279Z,-14.89
2016-01-14T01:28:17.779Z,-14.85
2016-01-14T01:28:29.279Z,-14.91
2016-01-14T01:28:40.751Z,-14.85
2016-01-14T01:28:52.251Z,-14.97
2016-01-14T01:29:03.704Z,-15
2016-01-14T01:29:15.157Z,-14.97
2016-01-14T01:29:26.626Z,-14.86
2016-01-14T01:29:38.081Z,-14.99
2016-01-14T01:29:49.550Z,-14.95
2016-01-14T01:30:01.019Z,-14.99
2016-01-14T01:30:12.487Z,-14.92
2016-01-14T01:30:23.956Z,-14.99
2016-01-14T01:30:35.459Z,-15
2016-01-14T01:30:46.944Z,-14.92
2016-01-14T01:30:58.412Z,-14.91
2016-01-14T01:31:09.912Z,-14.94
2016-01-14T01:31:21.350Z,-15.03
2016-01-14T01:31:32.806Z,-14.86
2016-01-14T01:31:44.259Z,-14.95
2016-01-14T01:31:55.712Z,-14.94
2016-01-14T01:32:07.181Z,-14.89
2016-01-14T01:32:18.650Z,-15.02
2016-01-14T01:32:30.103Z,-14.94
2016-01-14T01:32:41.590Z,-14.89
2016-01-14T01:32:53.075Z,-14.97
2016-01-14T01:33:04.543Z,-15
2016-01-14T01:33:14.606Z,-14.97
2016-01-14T01:33:26.090Z,-14.85
2016-01-14T01:33:37.562Z,-14.95
2016-01-14T01:33:49.031Z,-14.94
2016-01-14T01:34:00.484Z,-14.94
2016-01-14T01:34:11.968Z,-14.97
2016-01-14T01:34:23.421Z,-14.99
2016-01-14T01:34:34.861Z,-14.95
2016-01-14T01:34:46.345Z,-14.94
2016-01-14T01:34:57.798Z,-15
2016-01-14T01:35:09.283Z,-14.92
2016-01-14T01:35:20.783Z,-14.99
2016-01-14T01:35:32.251Z,-14.89
2016-01-14T01:35:43.754Z,-15.03
2016-01-14T01:35:55.239Z,-14.95
2016-01-14T01:36:06.708Z,-14.99
2016-01-14T01:36:18.145Z,-14.97
2016-01-14T01:36:29.629Z,-14.91
2016-01-14T01:36:41.070Z,-14.94
2016-01-14T01:36:52.507Z,-15
2016-01-14T01:37:03.976Z,-14.91
2016-01-14T01:37:15.429Z,-14.99
2016-01-14T01:37:26.898Z,-15.02
2016-01-14T01:37:38.384Z,-14.97
2016-01-14T01:37:49.853Z,-14.91
2016-01-14T01:38:01.322Z,-14.97
2016-01-14T01:38:12.103Z,-15
2016-01-14T01:38:23.541Z,-14.97
2016-01-14T01:38:35.009Z,-15
2016-01-14T01:38:46.466Z,-15.03
2016-01-14T01:38:57.934Z,-14.97
2016-01-14T01:39:09.387Z,-14.97
2016-01-14T01:39:20.856Z,-15.07
2016-01-14T01:39:32.309Z,-14.99
2016-01-14T01:39:43.797Z,-15.03
2016-01-14T01:39:55.281Z,-14.95
2016-01-14T01:40:06.750Z,-14.95
2016-01-14T01:40:18.281Z,-14.95
2016-01-14T01:40:29.750Z,-15.04
2016-01-14T01:40:41.205Z,-15.02
2016-01-14T01:40:52.674Z,-15.02
2016-01-14T01:41:04.127Z,-14.99
2016-01-14T01:41:15.596Z,-15.02
2016-01-14T01:41:27.080Z,-15.03
2016-01-14T01:41:38.536Z,-15.02
2016-01-14T01:41:50.005Z,-15.02
2016-01-14T01:42:01.458Z,-15.03
2016-01-14T01:42:12.942Z,-15.13
2016-01-14T01:42:24.411Z,-15.03
2016-01-14T01:42:35.895Z,-15.09
2016-01-14T01:42:47.383Z,-15.13
2016-01-14T01:42:58.852Z,-15.06
2016-01-14T01:43:10.336Z,-15.04
2016-01-14T01:43:21.773Z,-15.03
2016-01-14T01:43:33.242Z,-15.04
2016-01-14T01:43:44.714Z,-15
2016-01-14T01:43:56.151Z,-15.04
2016-01-14T01:44:07.620Z,-15.02
2016-01-14T01:44:19.089Z,-15.07
2016-01-14T01:44:30.542Z,-15.02
2016-01-14T01:44:42.028Z,-15.02
2016-01-14T01:44:53.497Z,-15.06
2016-01-14T01:45:04.982Z,-15
2016-01-14T01:45:16.482Z,-14.99
2016-01-14T01:45:27.247Z,-15.03
2016-01-14T01:45:38.747Z,-15
2016-01-14T01:45:50.188Z,-15.06
2016-01-14T01:46:01.641Z,-14.97
2016-01-14T01:46:13.110Z,-15.03
2016-01-14T01:46:24.563Z,-15.04
2016-01-14T01:46:36.031Z,-15.02
2016-01-14T01:46:47.519Z,-14.99
2016-01-14T01:46:58.988Z,-14.97
2016-01-14T01:47:10.472Z,-14.97
2016-01-14T01:47:21.956Z,-14.97
2016-01-14T01:47:33.425Z,-15.02
2016-01-14T01:47:44.944Z,-14.97
2016-01-14T01:47:56.428Z,-15
2016-01-14T01:48:07.897Z,-15.04
2016-01-14T01:48:19.334Z,-14.99
2016-01-14T01:48:30.803Z,-14.95
2016-01-14T01:48:42.258Z,-14.95
2016-01-14T01:48:53.571Z,-15.02
2016-01-14T01:49:05.055Z,-14.99
2016-01-14T01:49:16.508Z,-15
2016-01-14T01:49:27.977Z,-14.94
2016-01-14T01:49:39.461Z,-14.95
2016-01-14T01:49:50.933Z,-15
2016-01-14T01:50:02.417Z,-15
2016-01-14T01:50:13.855Z,-14.92
2016-01-14T01:50:25.324Z,-14.91
2016-01-14T01:50:36.089Z,-14.95
2016-01-14T01:50:47.545Z,-14.91
2016-01-14T01:50:59.014Z,-14.94
2016-01-14T01:51:10.467Z,-14.92
2016-01-14T01:51:21.936Z,-14.95
2016-01-14T01:51:33.420Z,-14.94
2016-01-14T01:51:44.891Z,-14.99
2016-01-14T01:51:56.376Z,-15.03
2016-01-14T01:52:07.876Z,-14.94
2016-01-14T01:52:19.360Z,-14.97
2016-01-14T01:52:30.860Z,-14.95
2016-01-14T01:52:42.313Z,-14.91
2016-01-14T01:52:53.754Z,-14.92
2016-01-14T01:53:05.222Z,-14.94
2016-01-14T01:53:16.675Z,-14.95
2016-01-14T01:53:28.144Z,-14.97
2016-01-14T01:53:39.613Z,-14.95
2016-01-14T01:53:51.084Z,-14.95
2016-01-14T01:54:02.568Z,-14.99
2016-01-14T01:54:14.037Z,-14.94
2016-01-14T01:54:25.521Z,-15
2016-01-14T01:54:36.990Z,-14.86
2016-01-14T01:54:48.509Z,-14.94
2016-01-14T01:54:59.962Z,-14.94
2016-01-14T01:55:11.415Z,-14.99
2016-01-14T01:55:22.868Z,-14.95
2016-01-14T01:55:34.321Z,-14.97
2016-01-14T01:55:45.793Z,-14.95
2016-01-14T01:55:57.262Z,-14.95
2016-01-14T01:56:08.730Z,-14.85
2016-01-14T01:56:20.199Z,-14.99
2016-01-14T01:56:31.668Z,-14.94
2016-01-14T01:56:43.152Z,-15
2016-01-14T01:56:54.640Z,-15.02
2016-01-14T01:57:06.108Z,-14.97
2016-01-14T01:57:17.608Z,-14.94
2016-01-14T01:57:29.077Z,-15.02
2016-01-14T01:57:40.530Z,-14.94
2016-01-14T01:57:52.002Z,-14.97
2016-01-14T01:58:03.455Z,-14.95
2016-01-14T01:58:14.893Z,-15.02
2016-01-14T01:58:26.377Z,-14.95
2016-01-14T01:58:37.830Z,-14.94
2016-01-14T01:58:49.316Z,-14.97
2016-01-14T01:59:00.816Z,-14.97
2016-01-14T01:59:12.285Z,-14.95
2016-01-14T01:59:23.770Z,-14.94
2016-01-14T01:59:35.254Z,-14.99
2016-01-14T01:59:46.694Z,-14.94
2016-01-14T01:59:58.163Z,-14.99
2016-01-14T02:00:09.616Z,-14.84
2016-01-14T02:00:21.085Z,-14.85
2016-01-14T02:00:32.523Z,-14.95
2016-01-14T02:00:43.991Z,-14.89
2016-01-14T02:00:55.462Z,-15.02
2016-01-14T02:01:06.931Z,-14.86
2016-01-14T02:01:18.431Z,-14.95
2016-01-14T02:01:29.900Z,-15.02
2016-01-14T02:01:41.384Z,-15.03
2016-01-14T02:01:52.856Z,-15
2016-01-14T02:02:04.309Z,-15
2016-01-14T02:02:15.646Z,-14.99
2016-01-14T02:02:26.630Z,-14.91
2016-01-14T02:02:37.943Z,-14.94
2016-01-14T02:02:49.289Z,-14.95
2016-01-14T02:03:00.836Z,-14.99
2016-01-14T02:03:12.555Z,-14.82
2016-01-14T02:03:24.024Z,-14.94
2016-01-14T02:03:35.493Z,-14.99
2016-01-14T02:03:46.977Z,-14.94
2016-01-14T02:03:58.464Z,-14.95
2016-01-14T02:04:09.933Z,-15
2016-01-14T02:04:21.449Z,-14.95
2016-01-14T02:04:32.949Z,-14.97
2016-01-14T02:04:44.402Z,-14.97
2016-01-14T02:04:55.857Z,-14.94
2016-01-14T02:05:07.326Z,-14.97
2016-01-14T02:05:18.779Z,-14.97
2016-01-14T02:05:30.248Z,-14.88
2016-01-14T02:05:41.701Z,-14.84
2016-01-14T02:05:53.204Z,-14.89
2016-01-14T02:06:04.688Z,-14.89
2016-01-14T02:06:16.157Z,-14.92
2016-01-14T02:06:27.641Z,-14.89
2016-01-14T02:06:39.110Z,-14.91
2016-01-14T02:06:50.613Z,-14.84
2016-01-14T02:07:01.910Z,-14.86
2016-01-14T02:07:13.363Z,-14.84
2016-01-14T02:07:24.832Z,-14.82
2016-01-14T02:07:35.566Z,-14.89
2016-01-14T02:07:47.035Z,-14.89
2016-01-14T02:07:58.506Z,-14.79
2016-01-14T02:08:09.959Z,-14.88
2016-01-14T02:08:21.427Z,-14.88
2016-01-14T02:08:32.896Z,-14.79
2016-01-14T02:08:44.381Z,-14.91
2016-01-14T02:08:55.884Z,-14.81
2016-01-14T02:09:07.352Z,-14.77
2016-01-14T02:09:18.837Z,-14.95
2016-01-14T02:09:30.290Z,-14.85
2016-01-14T02:09:41.727Z,-14.86
2016-01-14T02:09:53.215Z,-14.75
2016-01-14T02:10:04.668Z,-14.86
2016-01-14T02:10:16.137Z,-14.89
2016-01-14T02:10:27.621Z,-14.85
2016-01-14T02:10:39.074Z,-14.91
2016-01-14T02:10:50.543Z,-14.85
2016-01-14T02:11:02.029Z,-14.75
2016-01-14T02:11:13.482Z,-14.89
2016-01-14T02:11:24.982Z,-14.73
2016-01-14T02:11:36.467Z,-14.79
2016-01-14T02:11:47.935Z,-14.86
2016-01-14T02:11:59.407Z,-14.86
2016-01-14T02:12:10.860Z,-14.77
2016-01-14T02:12:22.313Z,-14.86
2016-01-14T02:12:33.767Z,-14.82
2016-01-14T02:12:45.267Z,-14.88
2016-01-14T02:12:56.723Z,-14.84
2016-01-14T02:13:08.207Z,-14.86
2016-01-14T02:13:19.707Z,-14.91
2016-01-14T02:13:31.176Z,-14.84
2016-01-14T02:13:42.660Z,-14.74
2016-01-14T02:13:54.148Z,-14.82
2016-01-14T02:14:05.616Z,-14.88
2016-01-14T02:14:17.085Z,-14.79
2016-01-14T02:14:28.538Z,-14.88
2016-01-14T02:14:40.007Z,-14.89
2016-01-14T02:14:51.460Z,-14.77
2016-01-14T02:15:02.915Z,-14.84
2016-01-14T02:15:14.384Z,-14.75
2016-01-14T02:15:25.853Z,-14.85
2016-01-14T02:15:37.337Z,-14.74
2016-01-14T02:15:48.118Z,-14.82
2016-01-14T02:15:59.590Z,-14.77
2016-01-14T02:16:11.090Z,-14.81
2016-01-14T02:16:22.559Z,-14.74
2016-01-14T02:16:34.028Z,-14.75
2016-01-14T02:16:45.496Z,-14.77
2016-01-14T02:16:56.937Z,-14.77
2016-01-14T02:17:08.406Z,-14.79
2016-01-14T02:17:19.874Z,-14.77
2016-01-14T02:17:31.327Z,-14.75
2016-01-14T02:17:42.812Z,-14.79
2016-01-14T02:17:54.281Z,-14.71
2016-01-14T02:18:05.752Z,-14.71
2016-01-14T02:18:17.252Z,-14.79
2016-01-14T02:18:28.721Z,-14.77
2016-01-14T02:18:40.205Z,-14.67
2016-01-14T02:18:51.502Z,-14.57
2016-01-14T02:19:02.974Z,-14.74
2016-01-14T02:19:14.412Z,-14.68
2016-01-14T02:19:25.880Z,-14.7
2016-01-14T02:19:37.365Z,-14.67
2016-01-14T02:19:48.818Z,-14.73
2016-01-14T02:20:00.304Z,-14.7
2016-01-14T02:20:11.773Z,-14.73
2016-01-14T02:20:23.242Z,-14.74
2016-01-14T02:20:34.742Z,-14.71
2016-01-14T02:20:45.507Z,-14.7
2016-01-14T02:20:56.976Z,-14.68
2016-01-14T02:21:08.448Z,-14.73
2016-01-14T02:21:19.901Z,-14.68
2016-01-14T02:21:31.370Z,-14.65
2016-01-14T02:21:42.807Z,-14.71
2016-01-14T02:21:53.542Z,-14.67
2016-01-14T02:22:05.029Z,-14.67
2016-01-14T02:22:16.498Z,-14.74
2016-01-14T02:22:27.982Z,-14.68
2016-01-14T02:22:39.482Z,-14.63
2016-01-14T02:22:50.951Z,-14.65
2016-01-14T02:23:02.406Z,-14.75
2016-01-14T02:23:13.875Z,-14.71
2016-01-14T02:23:25.312Z,-14.64
2016-01-14T02:23:36.781Z,-14.6
2016-01-14T02:23:48.218Z,-14.67
2016-01-14T02:23:58.968Z,-14.56